Time;durP1;ratioP1;P1;durP2;ratioP2;P2;SDS_P1;SDS_P2;PMS_P1;PMS_P2;Temp;Humidity;BMP_temperature;BMP_pressure;BME280_temperature;BME280_humidity;BME280_pressure;Samples;Min_cycle;Max_cycle;Signal;HPM_P1;HPM_P2
2024/04/05 00:00:33;;;;;;;85.93;78.80;;;;;12.50;96920.00;;;;4971953;28;20221;-67
2024/04/05 00:03:20;;;;;;;75.07;68.60;;;;;12.80;96913.00;;;;4964658;28;20225;-68
2024/04/05 00:06:10;;;;;;;55.97;51.97;;;;;13.00;96917.00;;;;4969014;28;20286;-67
2024/04/05 00:08:57;;;;;;;56.63;52.67;;;;;13.70;96916.00;;;;4971468;28;20252;-67
2024/04/05 00:11:46;;;;;;;38.67;36.07;;;;;13.40;96922.00;;;;4985289;28;20207;-67
2024/04/05 00:14:33;;;;;;;36.33;34.23;;;;;13.30;96934.00;;;;4972041;28;20227;-67
2024/04/05 00:17:21;;;;;;;39.60;35.97;;;;;13.50;96937.00;;;;4972442;28;20214;-68
2024/04/05 00:20:09;;;;;;;36.97;33.77;;;;;13.20;96939.00;;;;4966657;28;20224;-67
2024/04/05 00:22:58;;;;;;;28.00;26.50;;;;;13.20;96941.00;;;;4968992;28;20722;-67
2024/04/05 00:25:45;;;;;;;24.43;22.67;;;;;13.50;96954.00;;;;4968780;28;20233;-67
2024/04/05 00:28:34;;;;;;;20.57;18.97;;;;;13.60;96950.00;;;;4971542;28;20203;-68
2024/04/05 00:31:21;;;;;;;25.23;20.27;;;;;12.40;96947.00;;;;4972774;28;20214;-68
2024/04/05 00:34:09;;;;;;;20.87;19.20;;;;;12.80;96953.00;;;;4969294;28;20234;-67
2024/04/05 00:36:56;;;;;;;20.67;18.90;;;;;13.00;96959.00;;;;4959747;28;20625;-68
2024/04/05 00:39:46;;;;;;;19.10;17.30;;;;;12.90;96960.00;;;;4974139;28;20269;-68
2024/04/05 00:42:37;;;;;;;18.53;17.00;;;;;12.90;96943.00;;;;4962449;28;20203;-68
2024/04/05 00:45:25;;;;;;;22.77;18.07;;;;;13.50;96949.00;;;;4972625;28;20226;-68
2024/04/05 00:48:12;;;;;;;19.37;14.37;;;;;13.70;96962.00;;;;4966370;28;20206;-67
2024/04/05 00:51:01;;;;;;;12.50;11.20;;;;;13.40;96965.00;;;;4972655;28;20285;-68
2024/04/05 00:53:49;;;;;;;12.20;11.10;;;;;13.40;96962.00;;;;4969399;28;20272;-68
2024/04/05 00:56:38;;;;;;;18.60;16.97;;;;;13.10;96968.00;;;;4965213;28;20668;-68
2024/04/05 00:59:27;;;;;;;22.50;19.00;;;;;12.90;96984.00;;;;4966293;28;20317;-68
2024/04/05 01:02:15;;;;;;;24.60;20.97;;;;;12.60;96981.00;;;;4973807;28;20603;-68
2024/04/05 01:05:04;;;;;;;14.83;13.83;;;;;12.60;97001.00;;;;4968683;28;20219;-67
2024/04/05 01:07:52;;;;;;;15.73;14.37;;;;;12.90;97011.00;;;;4969994;28;20214;-67
2024/04/05 01:10:42;;;;;;;13.90;12.87;;;;;13.00;97008.00;;;;4970293;28;20206;-68
2024/04/05 01:13:30;;;;;;;14.03;12.70;;;;;13.20;97020.00;;;;4970842;28;20240;-68
2024/04/05 01:16:19;;;;;;;20.80;16.80;;;;;13.50;97027.00;;;;4966753;28;20206;-67
2024/04/05 01:19:06;;;;;;;19.23;17.63;;;;;13.60;97035.00;;;;4969917;28;20219;-68
2024/04/05 01:21:55;;;;;;;17.03;15.67;;;;;13.10;97047.00;;;;4965238;28;20238;-68
2024/04/05 01:24:43;;;;;;;14.17;13.07;;;;;12.90;97038.00;;;;4962283;28;20232;-68
2024/04/05 01:27:31;;;;;;;18.23;16.60;;;;;12.90;97041.00;;;;4968861;28;20203;-68
2024/04/05 01:30:19;;;;;;;26.53;20.70;;;;;12.60;97037.00;;;;4970194;28;20203;-67
2024/04/05 01:33:07;;;;;;;17.57;16.40;;;;;12.60;97031.00;;;;4972900;28;20199;-68
2024/04/05 01:35:54;;;;;;;15.90;14.27;;;;;13.00;97034.00;;;;4975212;28;20244;-68
2024/04/05 01:38:42;;;;;;;14.30;13.30;;;;;13.10;97017.00;;;;4967200;28;20233;-67
2024/04/05 01:41:33;;;;;;;18.30;16.53;;;;;13.00;97014.00;;;;4968504;28;20211;-68
2024/04/05 01:44:21;;;;;;;20.87;16.13;;;;;12.60;97006.00;;;;4976162;28;20244;-68
2024/04/05 01:47:10;;;;;;;19.13;16.73;;;;;13.30;97016.00;;;;4975324;28;20219;-68
2024/04/05 01:49:58;;;;;;;14.37;13.13;;;;;13.50;97035.00;;;;4974564;28;20202;-68
2024/04/05 01:52:47;;;;;;;17.60;16.17;;;;;13.40;97029.00;;;;4971370;28;20273;-67
2024/04/05 01:55:35;;;;;;;18.30;16.97;;;;;13.40;97031.00;;;;4974309;28;20281;-67
2024/04/05 01:58:24;;;;;;;22.23;20.00;;;;;12.60;97039.00;;;;4975717;28;20241;-67
2024/04/05 02:01:12;;;;;;;15.40;13.90;;;;;11.70;97039.00;;;;4963528;28;20214;-68
2024/04/05 02:03:59;;;;;;;16.63;15.20;;;;;11.80;97047.00;;;;4970902;28;20313;-69
2024/04/05 02:06:47;;;;;;;18.33;16.80;;;;;11.90;97048.00;;;;4976760;28;20210;-68
2024/04/05 02:09:34;;;;;;;23.87;22.07;;;;;12.30;97057.00;;;;4974621;28;20209;-67
2024/04/05 02:12:24;;;;;;;23.37;20.93;;;;;12.30;97051.00;;;;4968342;28;20214;-68
2024/04/05 02:15:12;;;;;;;23.53;21.33;;;;;12.40;97044.00;;;;4971640;28;20258;-68
2024/04/05 02:18:01;;;;;;;27.20;25.30;;;;;12.80;97041.00;;;;4971512;28;20199;-68
2024/04/05 02:20:53;;;;;;;29.30;27.67;;;;;12.70;97041.00;;;;4973879;28;20207;-68
2024/04/05 02:23:41;;;;;;;26.67;24.63;;;;;13.10;97047.00;;;;4975578;28;20211;-68
2024/04/05 02:26:29;;;;;;;32.00;29.13;;;;;13.10;97048.00;;;;4973536;28;20226;-68
2024/04/05 02:29:16;;;;;;;36.97;33.97;;;;;12.60;97042.00;;;;4968860;28;20261;-68
2024/04/05 02:32:06;;;;;;;37.37;34.53;;;;;13.00;97038.00;;;;4969553;28;20209;-67
2024/04/05 02:34:53;;;;;;;27.67;25.87;;;;;12.90;97040.00;;;;4973652;28;20601;-67
2024/04/05 02:37:42;;;;;;;29.37;27.30;;;;;12.90;97037.00;;;;4976896;28;20588;-67
2024/04/05 02:40:29;;;;;;;37.00;34.10;;;;;13.00;97030.00;;;;4972057;28;20226;-67
2024/04/05 02:43:17;;;;;;;35.43;32.83;;;;;13.20;97045.00;;;;4969589;28;20368;-67
2024/04/05 02:46:04;;;;;;;35.70;33.43;;;;;12.90;97045.00;;;;4971401;28;20230;-67
2024/04/05 02:48:55;;;;;;;31.50;29.40;;;;;12.60;97051.00;;;;4967146;28;20206;-68
2024/04/05 02:51:43;;;;;;;34.30;31.83;;;;;12.40;97057.00;;;;4973246;28;20207;-68
2024/04/05 02:54:32;;;;;;;29.57;27.87;;;;;12.80;97065.00;;;;4969739;28;20238;-67
2024/04/05 02:57:20;;;;;;;35.90;32.60;;;;;12.80;97061.00;;;;4975932;28;20215;-67
2024/04/05 03:00:09;;;;;;;33.27;30.90;;;;;12.70;97052.00;;;;4973082;28;20269;-67
2024/04/05 03:02:57;;;;;;;34.53;32.23;;;;;12.60;97060.00;;;;4975233;28;20224;-67
2024/04/05 03:05:46;;;;;;;34.27;32.20;;;;;12.90;97056.00;;;;4969881;28;20231;-67
2024/04/05 03:08:34;;;;;;;41.47;38.70;;;;;13.30;97052.00;;;;4974075;28;20219;-67
2024/04/05 03:11:22;;;;;;;37.70;34.70;;;;;13.40;97051.00;;;;4971998;28;20257;-67
2024/04/05 03:14:10;;;;;;;37.10;34.90;;;;;13.10;97072.00;;;;4973221;28;20226;-67
2024/04/05 03:16:57;;;;;;;41.87;38.40;;;;;12.90;97079.00;;;;4968898;28;20763;-68
2024/04/05 03:19:45;;;;;;;36.77;34.37;;;;;12.10;97082.00;;;;4973769;28;20248;-67
2024/04/05 03:22:33;;;;;;;29.23;27.17;;;;;12.30;97090.00;;;;4965226;28;20675;-67
2024/04/05 03:25:22;;;;;;;39.40;35.80;;;;;13.00;97111.00;;;;4969143;28;20222;-67
2024/04/05 03:28:09;;;;;;;26.87;24.80;;;;;13.40;97114.00;;;;4976474;28;20206;-66
2024/04/05 03:30:57;;;;;;;28.93;26.93;;;;;13.50;97114.00;;;;4967146;28;20211;-67
2024/04/05 03:33:45;;;;;;;26.43;24.47;;;;;13.20;97119.00;;;;4974520;28;20256;-67
2024/04/05 03:36:33;;;;;;;30.87;28.83;;;;;13.30;97117.00;;;;4971625;28;20211;-67
2024/04/05 03:39:23;;;;;;;44.33;40.40;;;;;13.40;97103.00;;;;4971316;28;20236;-67
2024/04/05 03:42:11;;;;;;;37.00;33.93;;;;;13.50;97098.00;;;;4972315;28;20206;-67
2024/04/05 03:44:59;;;;;;;37.57;35.10;;;;;13.60;97109.00;;;;4966571;28;20307;-67
2024/04/05 03:47:47;;;;;;;47.10;44.03;;;;;13.40;97107.00;;;;4966285;28;20257;-67
2024/04/05 03:50:35;;;;;;;44.80;41.80;;;;;13.40;97105.00;;;;4966473;28;20198;-67
2024/04/05 03:53:22;;;;;;;47.97;44.63;;;;;13.40;97094.00;;;;4967482;28;20262;-67
2024/04/05 03:56:11;;;;;;;53.37;49.90;;;;;12.70;97095.00;;;;4970912;28;20210;-67
2024/04/05 03:58:58;;;;;;;57.40;53.50;;;;;11.80;97103.00;;;;4966316;28;20241;-68
2024/04/05 04:01:47;;;;;;;53.80;50.00;;;;;12.60;97102.00;;;;4966158;28;20200;-67
2024/04/05 04:04:34;;;;;;;59.67;55.37;;;;;12.90;97111.00;;;;4968229;28;20246;-66
2024/04/05 04:07:22;;;;;;;66.97;61.33;;;;;13.20;97108.00;;;;4972529;28;20209;-67
2024/04/05 04:10:09;;;;;;;68.87;63.40;;;;;13.10;97108.00;;;;4968883;28;20560;-66
2024/04/05 04:12:59;;;;;;;67.33;62.43;;;;;13.20;97122.00;;;;4963324;28;20569;-66
2024/04/05 04:15:46;;;;;;;67.33;62.13;;;;;13.10;97111.00;;;;4970300;28;20233;-67
2024/04/05 04:18:35;;;;;;;63.00;58.40;;;;;12.70;97113.00;;;;4970496;28;20206;-68
2024/04/05 04:21:24;;;;;;;63.13;57.77;;;;;12.20;97111.00;;;;4974853;28;20217;-68
2024/04/05 04:24:12;;;;;;;60.03;55.57;;;;;13.10;97117.00;;;;4985946;28;20229;-68
2024/04/05 04:27:00;;;;;;;63.27;58.47;;;;;12.90;97126.00;;;;4969002;28;20726;-68
2024/04/05 04:29:49;;;;;;;67.23;62.10;;;;;12.50;97125.00;;;;4974093;28;20207;-68
2024/04/05 04:32:37;;;;;;;63.80;59.23;;;;;12.50;97127.00;;;;4966469;28;20198;-67
2024/04/05 04:35:25;;;;;;;74.70;68.10;;;;;12.00;97123.00;;;;4969721;28;20242;-68
2024/04/05 04:38:12;;;;;;;75.33;68.63;;;;;12.60;97132.00;;;;4963791;28;20237;-67
2024/04/05 04:41:01;;;;;;;66.03;60.90;;;;;12.90;97127.00;;;;4962184;28;20226;-67
2024/04/05 04:43:52;;;;;;;71.00;65.03;;;;;13.30;97117.00;;;;4971358;28;20207;-68
2024/04/05 04:46:41;;;;;;;82.20;75.00;;;;;13.40;97125.00;;;;4972104;28;20212;-68
2024/04/05 04:49:29;;;;;;;90.23;81.43;;;;;13.10;97122.00;;;;4971663;28;20206;-67
2024/04/05 04:52:16;;;;;;;110.07;94.70;;;;;13.10;97116.00;;;;4968751;28;20211;-68
2024/04/05 04:55:05;;;;;;;165.73;107.20;;;;;13.10;97116.00;;;;4966391;28;20237;-68
2024/04/05 04:57:52;;;;;;;166.50;106.70;;;;;12.60;97125.00;;;;4968175;28;20214;-68
2024/04/05 05:00:40;;;;;;;190.77;110.67;;;;;12.40;97131.00;;;;4972230;28;20219;-68
2024/04/05 05:03:30;;;;;;;143.53;104.67;;;;;12.80;97123.00;;;;4970368;28;20240;-68
2024/04/05 05:06:18;;;;;;;138.27;101.17;;;;;13.00;97115.00;;;;4963089;28;20214;-67
2024/04/05 05:09:06;;;;;;;161.83;105.60;;;;;13.20;97113.00;;;;4972984;28;20637;-68
2024/04/05 05:11:53;;;;;;;249.17;117.23;;;;;13.40;97122.00;;;;4973343;28;20602;-68
2024/04/05 05:14:41;;;;;;;147.73;98.27;;;;;13.30;97112.00;;;;4974962;28;20276;-68
2024/04/05 05:17:28;;;;;;;182.87;112.43;;;;;13.40;97111.00;;;;4970954;28;20361;-68
2024/04/05 05:20:21;;;;;;;157.87;106.07;;;;;12.10;97098.00;;;;4974001;28;20234;-67
2024/04/05 05:23:10;;;;;;;272.80;119.50;;;;;11.80;97102.00;;;;4973388;28;20238;-68
2024/04/05 05:25:57;;;;;;;15.10;12.27;;;;;12.30;97102.00;;;;4974164;28;20231;-67
2024/04/05 05:28:45;;;;;;;13.03;9.27;;;;;13.00;97109.00;;;;4975341;28;20211;-68
2024/04/05 05:31:32;;;;;;;15.00;9.97;;;;;12.90;97111.00;;;;4974644;28;20450;-68
2024/04/05 05:34:20;;;;;;;21.27;14.10;;;;;12.80;97126.00;;;;4969706;28;20225;-67
2024/04/05 05:37:09;;;;;;;19.23;11.63;;;;;12.90;97128.00;;;;4968972;28;20240;-67
2024/04/05 05:39:57;;;;;;;12.20;10.80;;;;;12.60;97132.00;;;;4973686;28;20221;-67
2024/04/05 05:42:45;;;;;;;11.03;8.20;;;;;12.50;97146.00;;;;4973498;28;20253;-67
2024/04/05 05:45:33;;;;;;;17.23;9.30;;;;;12.90;97151.00;;;;4972303;28;20716;-67
2024/04/05 05:48:20;;;;;;;15.37;7.63;;;;;13.40;97153.00;;;;4972363;28;20834;-66
2024/04/05 05:51:08;;;;;;;10.47;7.00;;;;;13.90;97149.00;;;;4967671;28;20210;-66
2024/04/05 05:53:57;;;;;;;12.00;7.00;;;;;14.10;97155.00;;;;4970191;28;20207;-67
2024/04/05 05:56:45;;;;;;;9.33;3.97;;;;;14.60;97155.00;;;;4976117;28;20688;-67
2024/04/05 05:59:32;;;;;;;14.50;5.60;;;;;14.90;97145.00;;;;4973094;28;20829;-67
2024/04/05 06:02:20;;;;;;;12.27;4.50;;;;;14.50;97144.00;;;;4969660;28;20834;-67
2024/04/05 06:05:09;;;;;;;9.97;3.70;;;;;15.30;97151.00;;;;4970281;28;20239;-67
2024/04/05 06:07:57;;;;;;;4.70;1.93;;;;;15.10;97137.00;;;;4968518;28;20209;-67
2024/04/05 06:10:55;;;;;;;10.60;3.97;;;;;14.70;97137.00;;;;4970067;28;20208;-67
2024/04/05 06:13:43;;;;;;;8.73;3.33;;;;;14.80;97147.00;;;;4975228;28;20211;-69
2024/04/05 06:16:31;;;;;;;10.13;3.73;;;;;14.50;97132.00;;;;4971645;28;20210;-67
2024/04/05 06:19:19;;;;;;;15.80;5.87;;;;;15.30;97139.00;;;;4970346;28;20640;-68
2024/04/05 06:22:06;;;;;;;12.20;4.57;;;;;15.60;97140.00;;;;4970397;28;20592;-67
2024/04/05 06:24:54;;;;;;;9.63;3.80;;;;;16.30;97143.00;;;;4970128;28;20618;-67
2024/04/05 06:27:43;;;;;;;4.70;1.97;;;;;16.50;97147.00;;;;4972884;28;20216;-68
2024/04/05 06:30:31;;;;;;;10.23;3.93;;;;;16.60;97152.00;;;;4967485;28;20205;-67
2024/04/05 06:33:18;;;;;;;10.10;3.90;;;;;16.20;97155.00;;;;4971803;28;20214;-68
2024/04/05 06:36:09;;;;;;;4.20;1.93;;;;;16.00;97154.00;;;;4973636;28;20230;-67
2024/04/05 06:38:56;;;;;;;6.83;2.73;;;;;16.10;97148.00;;;;4976385;28;20629;-67
2024/04/05 06:41:44;;;;;;;7.90;3.03;;;;;16.40;97154.00;;;;4970260;28;20673;-67
2024/04/05 06:44:35;;;;;;;15.03;5.67;;;;;16.40;97156.00;;;;4969561;28;20787;-68
2024/04/05 06:47:24;;;;;;;15.73;5.83;;;;;16.60;97164.00;;;;4971192;28;20211;-67
2024/04/05 06:50:11;;;;;;;11.63;4.50;;;;;16.80;97163.00;;;;4970693;28;20210;-68
2024/04/05 06:52:59;;;;;;;8.70;3.50;;;;;17.30;97165.00;;;;4976378;28;20211;-68
2024/04/05 06:55:47;;;;;;;8.80;3.37;;;;;17.40;97161.00;;;;4972732;28;20648;-68
2024/04/05 06:58:35;;;;;;;8.23;3.20;;;;;17.50;97170.00;;;;4972545;28;20218;-68
2024/04/05 07:01:25;;;;;;;16.70;6.17;;;;;17.80;97160.00;;;;4968606;28;20230;-68
2024/04/05 07:04:12;;;;;;;8.13;3.33;;;;;17.90;97164.00;;;;4968867;28;20230;-68
2024/04/05 07:07:00;;;;;;;12.80;4.90;;;;;17.80;97166.00;;;;4971374;28;20202;-68
2024/04/05 07:09:48;;;;;;;9.40;3.80;;;;;18.00;97175.00;;;;4969166;28;20217;-68
2024/04/05 07:12:36;;;;;;;7.50;3.30;;;;;18.30;97172.00;;;;4967955;28;20199;-68
2024/04/05 07:15:23;;;;;;;16.57;6.30;;;;;18.50;97172.00;;;;4966448;28;20227;-68
2024/04/05 07:18:13;;;;;;;7.37;3.10;;;;;18.50;97173.00;;;;4973046;28;20210;-68
2024/04/05 07:21:03;;;;;;;4.40;2.20;;;;;18.60;97178.00;;;;4966771;28;20229;-68
2024/04/05 07:23:51;;;;;;;8.37;3.63;;;;;18.70;97178.00;;;;4970218;28;20700;-68
2024/04/05 07:26:40;;;;;;;7.83;3.33;;;;;18.70;97181.00;;;;4969264;28;20824;-67
2024/04/05 07:29:27;;;;;;;15.10;6.07;;;;;18.50;97186.00;;;;4971459;28;20199;-67
2024/04/05 07:32:15;;;;;;;10.07;4.17;;;;;18.60;97187.00;;;;4970125;28;20486;-67
2024/04/05 07:35:05;;;;;;;9.30;3.77;;;;;18.50;97194.00;;;;4967724;28;20245;-68
2024/04/05 07:37:53;;;;;;;8.10;3.63;;;;;18.50;97190.00;;;;4971074;28;20241;-67
2024/04/05 07:40:41;;;;;;;7.87;3.53;;;;;18.00;97196.00;;;;4971861;28;20234;-68
2024/04/05 07:43:28;;;;;;;12.80;5.20;;;;;18.40;97197.00;;;;4968064;28;20225;-67
2024/04/05 07:46:16;;;;;;;8.40;3.57;;;;;18.90;97200.00;;;;4970968;28;20206;-67
2024/04/05 07:49:04;;;;;;;7.73;3.30;;;;;19.10;97205.00;;;;4971219;28;20215;-68
2024/04/05 07:51:53;;;;;;;8.60;4.03;;;;;18.70;97190.00;;;;4972606;28;20195;-68
2024/04/05 07:54:43;;;;;;;8.40;3.93;;;;;18.70;97190.00;;;;4971355;28;20774;-68
2024/04/05 07:57:31;;;;;;;14.33;5.93;;;;;18.50;97193.00;;;;4971211;28;20222;-68
2024/04/05 08:00:20;;;;;;;18.60;7.70;;;;;18.70;97191.00;;;;4967228;28;20240;-67
2024/04/05 08:03:08;;;;;;;8.83;4.43;;;;;19.30;97196.00;;;;4967088;28;20249;-67
2024/04/05 08:05:56;;;;;;;8.33;4.30;;;;;19.10;97197.00;;;;4973150;28;20249;-68
2024/04/05 08:08:46;;;;;;;8.53;4.33;;;;;19.70;97202.00;;;;4974401;28;20222;-68
2024/04/05 08:11:34;;;;;;;4.40;3.90;;;;;20.00;97194.00;;;;4966917;28;20217;-68
2024/04/05 08:14:23;;;;;;;16.27;9.17;;;;;20.50;97205.00;;;;4972423;28;20231;-68
2024/04/05 08:17:10;;;;;;;16.83;11.70;;;;;20.50;97194.00;;;;4975015;28;20625;-68
2024/04/05 08:19:59;;;;;;;15.80;14.57;;;;;20.90;97189.00;;;;4970984;28;20236;-68
2024/04/05 08:22:46;;;;;;;22.90;21.27;;;;;21.20;97194.00;;;;4974160;28;20206;-68
2024/04/05 08:25:36;;;;;;;45.23;42.07;;;;;21.40;97184.00;;;;4968123;28;20230;-68
2024/04/05 08:28:23;;;;;;;60.83;56.83;;;;;21.90;97195.00;;;;4971978;28;20741;-68
2024/04/05 08:31:11;;;;;;;75.23;71.57;;;;;21.70;97196.00;;;;4971544;28;20698;-68
2024/04/05 08:33:59;;;;;;;94.90;90.30;;;;;21.60;97191.00;;;;4972133;28;20719;-68
2024/04/05 08:36:48;;;;;;;75.87;72.20;;;;;21.80;97197.00;;;;4970552;28;20205;-68
2024/04/05 08:39:35;;;;;;;88.37;84.33;;;;;22.20;97187.00;;;;4969216;28;20221;-68
2024/04/05 08:42:25;;;;;;;86.73;82.00;;;;;22.40;97196.00;;;;4966243;28;20214;-68
2024/04/05 08:45:13;;;;;;;111.27;105.97;;;;;22.60;97195.00;;;;4968126;28;20238;-68
2024/04/05 08:48:05;;;;;;;96.10;91.57;;;;;22.60;97200.00;;;;4970708;28;20207;-68
2024/04/05 08:50:52;;;;;;;113.27;108.03;;;;;22.70;97204.00;;;;4972116;28;20206;-68
2024/04/05 08:53:41;;;;;;;116.63;111.50;;;;;22.90;97207.00;;;;4974523;28;20211;-69
2024/04/05 08:56:30;;;;;;;130.43;123.67;;;;;23.10;97214.00;;;;4968645;28;20699;-68
2024/04/05 08:59:19;;;;;;;140.67;133.90;;;;;22.90;97216.00;;;;4968108;28;20711;-69
2024/04/05 09:02:09;;;;;;;132.53;125.87;;;;;23.10;97219.00;;;;4970107;28;20680;-68
2024/04/05 09:04:56;;;;;;;113.33;108.30;;;;;22.50;97215.00;;;;4971181;28;20234;-69
2024/04/05 09:07:45;;;;;;;86.23;82.47;;;;;23.10;97208.00;;;;4968000;28;20755;-68
2024/04/05 09:10:32;;;;;;;96.80;91.80;;;;;23.50;97211.00;;;;4965189;28;20213;-68
2024/04/05 09:13:20;;;;;;;78.33;74.57;;;;;23.30;97217.00;;;;4965887;28;20704;-68
2024/04/05 09:16:09;;;;;;;133.13;127.43;;;;;23.50;97211.00;;;;4970903;28;20215;-69
2024/04/05 09:19:04;;;;;;;148.30;142.30;;;;;23.90;97210.00;;;;4969826;28;20203;-68
2024/04/05 09:21:51;;;;;;;175.63;167.80;;;;;23.90;97203.00;;;;4970106;28;20227;-68
2024/04/05 09:24:40;;;;;;;123.10;117.83;;;;;23.90;97204.00;;;;4965204;28;20227;-68
2024/04/05 09:27:27;;;;;;;128.00;122.00;;;;;23.20;97215.00;;;;4967877;28;20203;-68
2024/04/05 09:30:15;;;;;;;135.57;129.63;;;;;24.00;97199.00;;;;4968176;28;20210;-68
2024/04/05 09:33:05;;;;;;;137.20;131.33;;;;;24.40;97197.00;;;;4969518;28;20207;-67
2024/04/05 09:35:56;;;;;;;103.17;98.33;;;;;24.40;97198.00;;;;4969532;28;20219;-68
2024/04/05 09:38:45;;;;;;;109.53;105.27;;;;;24.60;97190.00;;;;4969974;28;20858;-68
2024/04/05 09:41:34;;;;;;;133.00;126.33;;;;;24.30;97186.00;;;;4963401;28;20352;-68
2024/04/05 09:44:23;;;;;;;120.07;113.90;;;;;24.70;97189.00;;;;4970432;28;20782;-68
2024/04/05 09:47:13;;;;;;;114.93;109.93;;;;;24.40;97181.00;;;;4970337;28;20211;-68
2024/04/05 09:50:02;;;;;;;113.40;108.75;;;;;24.80;97185.00;;;;4973700;28;20214;-68
2024/04/05 09:52:53;;;;;;;104.17;99.90;;;;;25.10;97183.00;;;;4971836;28;20203;-68
2024/04/05 09:55:43;;;;;;;112.47;107.73;;;;;24.80;97169.00;;;;4970963;28;20249;-68
2024/04/05 09:58:31;;;;;;;138.03;131.73;;;;;25.10;97174.00;;;;4969046;28;20264;-68
2024/04/05 10:01:19;;;;;;;124.93;119.23;;;;;23.90;97162.00;;;;4973786;28;20234;-68
2024/04/05 10:04:08;;;;;;;205.17;196.23;;;;;24.80;97168.00;;;;4972634;28;20789;-68
2024/04/05 10:07:05;;;;;;;214.23;204.50;;;;;23.60;97169.00;;;;4976640;28;20218;-68
2024/04/05 10:09:53;;;;;;;157.93;151.23;;;;;23.70;97156.00;;;;4985124;28;20226;-68
2024/04/05 10:12:40;;;;;;;167.83;159.60;;;;;25.30;97158.00;;;;4967545;28;20211;-68
2024/04/05 10:15:29;;;;;;;215.20;204.87;;;;;25.60;97152.00;;;;4968198;28;20219;-68
2024/04/05 10:18:24;;;;;;;175.67;168.00;;;;;24.80;97160.00;;;;4974269;28;20632;-68
2024/04/05 10:21:13;;;;;;;155.03;149.33;;;;;25.50;97146.00;;;;4974922;28;20280;-68
2024/04/05 10:24:01;;;;;;;209.60;200.70;;;;;24.40;97160.00;;;;4974285;28;20871;-68
2024/04/05 10:26:54;;;;;;;206.83;198.03;;;;;24.10;97164.00;;;;4976735;28;20217;-68
2024/04/05 10:29:41;;;;;;;230.40;220.17;;;;;24.40;97162.00;;;;4975724;28;20813;-68
2024/04/05 10:32:30;;;;;;;233.73;222.90;;;;;23.80;97151.00;;;;4970113;28;20209;-69
2024/04/05 10:35:18;;;;;;;211.37;201.77;;;;;24.60;97152.00;;;;4971262;28;20226;-68
2024/04/05 10:38:06;;;;;;;191.83;183.83;;;;;24.90;97134.00;;;;4968353;28;20206;-68
2024/04/05 10:40:58;;;;;;;209.80;200.43;;;;;26.00;97130.00;;;;4971936;28;20230;-69
2024/04/05 10:43:47;;;;;;;242.30;231.53;;;;;26.70;97124.00;;;;4975039;28;20207;-69
2024/04/05 10:46:36;;;;;;;282.70;269.37;;;;;27.00;97128.00;;;;4971922;28;20202;-68
2024/04/05 10:49:25;;;;;;;393.43;370.53;;;;;26.20;97135.00;;;;4971736;28;20701;-68
2024/04/05 10:52:14;;;;;;;352.30;334.17;;;;;25.90;97140.00;;;;4973188;28;20210;-68
2024/04/05 10:55:10;;;;;;;335.90;319.97;;;;;25.60;97132.00;;;;4974112;28;20599;-68
2024/04/05 10:58:03;;;;;;;345.60;328.80;;;;;24.40;97139.00;;;;4976069;28;20217;-69
2024/04/05 11:00:50;;;;;;;324.60;309.00;;;;;24.40;97136.00;;;;4966942;28;20231;-68
2024/04/05 11:03:39;;;;;;;294.70;281.93;;;;;24.80;97134.00;;;;4973734;28;20214;-68
2024/04/05 11:06:26;;;;;;;241.57;230.47;;;;;26.00;97132.00;;;;4967344;28;20214;-68
2024/04/05 11:09:14;;;;;;;230.60;220.70;;;;;26.20;97125.00;;;;4965694;28;20218;-68
2024/04/05 11:12:02;;;;;;;231.70;221.80;;;;;26.40;97127.00;;;;4974432;28;20199;-69
2024/04/05 11:14:52;;;;;;;288.50;275.63;;;;;27.20;97109.00;;;;4966812;28;20246;-69
2024/04/05 11:17:41;;;;;;;326.67;311.90;;;;;26.00;97096.00;;;;4970864;28;20767;-69
2024/04/05 11:20:30;;;;;;;350.67;333.50;;;;;24.90;97097.00;;;;4972407;28;20643;-66
2024/04/05 11:23:21;;;;;;;379.70;361.30;;;;;26.70;97108.00;;;;4970532;28;20709;-68
2024/04/05 11:26:08;;;;;;;387.40;368.63;;;;;28.20;97116.00;;;;4970310;28;20781;-68
2024/04/05 11:28:57;;;;;;;436.37;414.27;;;;;29.30;97109.00;;;;4969638;28;20213;-68
2024/04/05 11:31:46;;;;;;;488.60;460.50;;;;;29.60;97098.00;;;;4974039;28;20260;-69
2024/04/05 11:34:33;;;;;;;540.53;506.33;;;;;30.10;97098.00;;;;4968054;28;20194;-68
2024/04/05 11:37:22;;;;;;;576.67;537.73;;;;;29.80;97089.00;;;;4968914;28;20227;-69
2024/04/05 11:40:10;;;;;;;572.50;537.00;;;;;29.70;97077.00;;;;4959214;28;20213;-69
2024/04/05 11:42:58;;;;;;;570.03;536.07;;;;;29.80;97071.00;;;;4966866;28;20624;-69
2024/04/05 11:45:45;;;;;;;567.17;534.63;;;;;28.40;97049.00;;;;4973235;28;20225;-69
2024/04/05 11:48:35;;;;;;;548.37;518.07;;;;;26.80;97054.00;;;;4960378;28;20210;-69
2024/04/05 11:51:22;;;;;;;560.57;529.53;;;;;28.80;97064.00;;;;4961755;28;20214;-69
2024/04/05 11:54:10;;;;;;;552.30;522.10;;;;;29.20;97080.00;;;;4969093;28;20223;-69
2024/04/05 11:56:57;;;;;;;547.17;517.20;;;;;29.30;97089.00;;;;4974131;28;20208;-69
2024/04/05 11:59:45;;;;;;;580.37;546.50;;;;;29.40;97080.00;;;;4970247;28;20205;-68
2024/04/05 12:02:33;;;;;;;577.20;543.37;;;;;28.70;97069.00;;;;4968563;28;20233;-69
2024/04/05 12:05:23;;;;;;;564.93;532.90;;;;;26.70;97070.00;;;;4972406;28;20233;-69
2024/04/05 12:08:10;;;;;;;551.17;520.33;;;;;28.60;97073.00;;;;4972106;28;20209;-69
2024/04/05 12:10:59;;;;;;;560.57;528.50;;;;;29.70;97064.00;;;;4978737;28;20201;-68
2024/04/05 12:13:49;;;;;;;567.07;534.40;;;;;29.70;97062.00;;;;4973177;28;20224;-68
2024/04/05 12:16:36;;;;;;;578.47;543.60;;;;;30.40;97054.00;;;;4970151;28;20213;-68
2024/04/05 12:19:24;;;;;;;607.23;570.00;;;;;30.80;97035.00;;;;4968649;28;20409;-68
2024/04/05 12:22:13;;;;;;;635.10;592.40;;;;;30.00;97018.00;;;;4970943;28;20297;-68
2024/04/05 12:25:02;;;;;;;635.80;594.00;;;;;29.00;97039.00;;;;4972542;28;20226;-69
2024/04/05 12:27:49;;;;;;;641.40;600.83;;;;;29.80;97032.00;;;;4964376;28;20206;-69
2024/04/05 12:30:38;;;;;;;650.63;609.23;;;;;30.50;97002.00;;;;4966639;28;20217;-68
2024/04/05 12:33:25;;;;;;;664.40;619.23;;;;;29.90;97005.00;;;;4966740;28;20227;-68
2024/04/05 12:36:17;;;;;;;669.47;620.90;;;;;30.30;97016.00;;;;4968671;28;20218;-69
2024/04/05 12:39:07;;;;;;;677.57;627.10;;;;;32.40;97009.00;;;;4967651;28;20807;-69
2024/04/05 12:41:55;;;;;;;708.03;653.35;;;27.50;66.10;33.30;97004.00;;;;4965824;28;20230;-69
2024/04/05 12:44:44;;;;;;;720.15;666.25;;;;;32.80;97020.00;;;;4967074;28;20273;-66
2024/04/05 12:47:32;;;;;;;735.38;680.58;;;;;29.90;97001.00;;;;4968106;28;20276;-67
2024/04/05 12:50:19;;;;;;;728.92;674.65;;;;;27.80;96984.00;;;;4965873;28;20459;-66
2024/04/05 12:53:07;;;;;;;701.80;648.83;;;;;27.10;96987.00;;;;4971389;28;20211;-66
2024/04/05 12:55:57;;;;;;;682.87;630.63;;;;;29.10;96990.00;;;;4971022;28;20226;-68
2024/04/05 12:58:47;;;;;;;659.70;609.33;;;;;31.10;96993.00;;;;4968963;28;20345;-68
2024/04/05 13:01:35;;;;;;;676.10;623.03;;;;;32.40;96992.00;;;;4967982;28;20229;-68
2024/04/05 13:04:23;;;;;;;686.60;633.38;;;;;31.60;96976.00;;;;4969753;28;20234;-69
2024/04/05 13:07:10;;;;;;;708.92;655.08;;;;;31.50;96968.00;;;;4965724;28;20223;-69
2024/04/05 13:09:58;;;;;;;711.95;658.80;;;;;30.70;96950.00;;;;4971030;28;20209;-69
2024/04/05 13:12:47;;;;;;;721.22;667.65;;;;;30.10;96944.00;;;;4969572;28;20255;-68
2024/04/05 13:15:36;;;;;;;728.67;674.55;;;;;32.00;96945.00;;;;4967442;28;20785;-68
2024/04/05 13:18:23;;;;;;;733.50;679.13;;;;;32.10;96951.00;;;;4971270;28;20202;-69
2024/04/05 13:21:13;;;;;;;742.40;687.90;;;;;33.00;96974.00;;;;4984109;28;20276;-69
2024/04/05 13:24:00;;;;;;;748.80;694.33;;;;;33.20;96946.00;;;;4969484;28;20224;-69
2024/04/05 13:26:48;;;;;;;758.85;704.25;;;;;34.00;96946.00;;;;4974358;28;20222;-69
2024/04/05 13:29:37;;;;;;;778.35;722.63;;;;;34.40;96940.00;;;;4976356;28;20210;-69
2024/04/05 13:32:25;;;;;;;793.75;737.28;;;;;34.80;96935.00;;;;4971128;28;20225;-69
2024/04/05 13:35:12;;;;;;;798.63;743.40;;;;;34.80;96940.00;;;;4975332;28;20220;-69